sensor_id;sensor_type;location;lat;lon;timestamp;P1;durP1;ratioP1;P2;durP2;ratioP2
16839;SDS011;8536;52.150;11.572;2023-01-16T00:01:12;2.70;;;0.80;;
16839;SDS011;8536;52.150;11.572;2023-01-16T00:03:39;0.50;;;0.50;;
16839;SDS011;8536;52.150;11.572;2023-01-16T00:06:06;1.07;;;0.60;;
16839;SDS011;8536;52.150;11.572;2023-01-16T00:08:32;0.80;;;0.50;;
16839;SDS011;8536;52.150;11.572;2023-01-16T00:10:59;2.47;;;0.60;;
16839;SDS011;8536;52.150;11.572;2023-01-16T00:13:25;1.47;;;0.60;;
16839;SDS011;8536;52.150;11.572;2023-01-16T00:15:52;0.93;;;0.47;;
16839;SDS011;8536;52.150;11.572;2023-01-16T00:18:18;0.47;;;0.30;;
16839;SDS011;8536;52.150;11.572;2023-01-16T00:20:45;1.40;;;0.60;;
16839;SDS011;8536;52.150;11.572;2023-01-16T00:23:12;1.00;;;0.50;;
16839;SDS011;8536;52.150;11.572;2023-01-16T00:25:40;1.50;;;0.50;;
16839;SDS011;8536;52.150;11.572;2023-01-16T00:28:11;1.00;;;0.60;;
16839;SDS011;8536;52.150;11.572;2023-01-16T00:30:39;3.00;;;0.53;;
16839;SDS011;8536;52.150;11.572;2023-01-16T00:33:06;1.40;;;0.53;;
16839;SDS011;8536;52.150;11.572;2023-01-16T00:35:32;0.57;;;0.53;;
16839;SDS011;8536;52.150;11.572;2023-01-16T00:37:59;1.10;;;0.50;;
16839;SDS011;8536;52.150;11.572;2023-01-16T00:40:26;2.80;;;0.70;;
16839;SDS011;8536;52.150;11.572;2023-01-16T00:42:53;1.63;;;0.60;;
16839;SDS011;8536;52.150;11.572;2023-01-16T00:45:19;1.50;;;0.80;;
16839;SDS011;8536;52.150;11.572;2023-01-16T00:47:46;1.50;;;0.97;;
16839;SDS011;8536;52.150;11.572;2023-01-16T00:50:13;1.27;;;0.60;;
16839;SDS011;8536;52.150;11.572;2023-01-16T00:52:39;2.67;;;0.53;;
16839;SDS011;8536;52.150;11.572;2023-01-16T00:55:06;2.00;;;0.43;;
16839;SDS011;8536;52.150;11.572;2023-01-16T00:57:32;1.17;;;0.50;;
16839;SDS011;8536;52.150;11.572;2023-01-16T00:59:59;2.00;;;0.63;;
16839;SDS011;8536;52.150;11.572;2023-01-16T01:02:25;2.33;;;0.73;;
16839;SDS011;8536;52.150;11.572;2023-01-16T01:04:52;1.73;;;0.63;;
16839;SDS011;8536;52.150;11.572;2023-01-16T01:07:18;0.93;;;0.50;;
16839;SDS011;8536;52.150;11.572;2023-01-16T01:09:45;1.90;;;0.73;;
16839;SDS011;8536;52.150;11.572;2023-01-16T01:12:11;1.27;;;0.60;;
16839;SDS011;8536;52.150;11.572;2023-01-16T01:14:38;0.80;;;0.40;;
16839;SDS011;8536;52.150;11.572;2023-01-16T01:17:04;1.10;;;0.60;;
16839;SDS011;8536;52.150;11.572;2023-01-16T01:19:31;2.50;;;0.60;;
16839;SDS011;8536;52.150;11.572;2023-01-16T01:21:57;1.03;;;0.70;;
16839;SDS011;8536;52.150;11.572;2023-01-16T01:24:24;1.50;;;0.63;;
16839;SDS011;8536;52.150;11.572;2023-01-16T01:26:50;1.33;;;0.70;;
16839;SDS011;8536;52.150;11.572;2023-01-16T01:29:17;1.60;;;0.70;;
16839;SDS011;8536;52.150;11.572;2023-01-16T01:31:43;1.37;;;0.63;;
16839;SDS011;8536;52.150;11.572;2023-01-16T01:34:10;2.90;;;0.63;;
16839;SDS011;8536;52.150;11.572;2023-01-16T01:36:36;0.83;;;0.50;;
16839;SDS011;8536;52.150;11.572;2023-01-16T01:39:03;3.03;;;0.80;;
16839;SDS011;8536;52.150;11.572;2023-01-16T01:41:29;1.50;;;0.70;;
16839;SDS011;8536;52.150;11.572;2023-01-16T01:43:56;1.00;;;0.50;;
16839;SDS011;8536;52.150;11.572;2023-01-16T01:46:28;0.93;;;0.60;;
16839;SDS011;8536;52.150;11.572;2023-01-16T01:48:58;2.57;;;0.50;;
16839;SDS011;8536;52.150;11.572;2023-01-16T01:51:34;1.50;;;1.10;;
16839;SDS011;8536;52.150;11.572;2023-01-16T01:56:36;1.50;;;0.60;;
16839;SDS011;8536;52.150;11.572;2023-01-16T01:59:07;1.30;;;0.70;;
16839;SDS011;8536;52.150;11.572;2023-01-16T02:01:36;1.70;;;0.60;;
16839;SDS011;8536;52.150;11.572;2023-01-16T02:04:05;0.93;;;0.60;;
16839;SDS011;8536;52.150;11.572;2023-01-16T02:06:39;1.70;;;0.63;;
16839;SDS011;8536;52.150;11.572;2023-01-16T02:09:07;1.87;;;0.70;;
16839;SDS011;8536;52.150;11.572;2023-01-16T02:11:35;2.57;;;0.83;;
16839;SDS011;8536;52.150;11.572;2023-01-16T02:14:06;0.97;;;0.53;;
16839;SDS011;8536;52.150;11.572;2023-01-16T02:16:34;2.40;;;0.70;;
16839;SDS011;8536;52.150;11.572;2023-01-16T02:24:50;1.17;;;0.70;;
16839;SDS011;8536;52.150;11.572;2023-01-16T02:28:11;1.30;;;0.60;;
16839;SDS011;8536;52.150;11.572;2023-01-16T02:31:20;0.80;;;0.40;;
16839;SDS011;8536;52.150;11.572;2023-01-16T02:34:01;1.70;;;0.70;;
16839;SDS011;8536;52.150;11.572;2023-01-16T02:44:59;4.03;;;0.80;;
16839;SDS011;8536;52.150;11.572;2023-01-16T02:53:36;2.83;;;0.53;;
16839;SDS011;8536;52.150;11.572;2023-01-16T02:56:08;3.03;;;0.90;;
16839;SDS011;8536;52.150;11.572;2023-01-16T02:58:45;1.87;;;0.80;;
16839;SDS011;8536;52.150;11.572;2023-01-16T03:01:12;2.73;;;0.97;;
16839;SDS011;8536;52.150;11.572;2023-01-16T03:06:12;2.23;;;0.90;;
16839;SDS011;8536;52.150;11.572;2023-01-16T03:17:14;1.77;;;0.90;;
16839;SDS011;8536;52.150;11.572;2023-01-16T03:22:23;2.37;;;0.70;;
16839;SDS011;8536;52.150;11.572;2023-01-16T03:27:37;2.37;;;0.60;;
16839;SDS011;8536;52.150;11.572;2023-01-16T03:30:14;1.20;;;0.60;;
16839;SDS011;8536;52.150;11.572;2023-01-16T03:32:46;1.53;;;0.90;;
16839;SDS011;8536;52.150;11.572;2023-01-16T03:37:56;3.00;;;1.10;;
16839;SDS011;8536;52.150;11.572;2023-01-16T03:40:25;2.40;;;0.83;;
16839;SDS011;8536;52.150;11.572;2023-01-16T03:43:08;1.30;;;0.90;;
16839;SDS011;8536;52.150;11.572;2023-01-16T03:45:49;2.83;;;0.80;;
16839;SDS011;8536;52.150;11.572;2023-01-16T03:51:02;3.60;;;0.97;;
16839;SDS011;8536;52.150;11.572;2023-01-16T03:53:39;6.10;;;1.40;;
16839;SDS011;8536;52.150;11.572;2023-01-16T03:56:17;2.00;;;0.87;;
16839;SDS011;8536;52.150;11.572;2023-01-16T03:58:48;2.10;;;0.87;;
16839;SDS011;8536;52.150;11.572;2023-01-16T04:01:24;2.20;;;1.10;;
16839;SDS011;8536;52.150;11.572;2023-01-16T04:04:00;1.93;;;0.80;;
16839;SDS011;8536;52.150;11.572;2023-01-16T04:06:36;3.13;;;0.70;;
16839;SDS011;8536;52.150;11.572;2023-01-16T04:09:13;2.33;;;1.00;;
16839;SDS011;8536;52.150;11.572;2023-01-16T04:11:44;4.20;;;1.03;;
16839;SDS011;8536;52.150;11.572;2023-01-16T04:14:13;1.43;;;0.60;;
16839;SDS011;8536;52.150;11.572;2023-01-16T04:16:40;2.00;;;0.90;;
16839;SDS011;8536;52.150;11.572;2023-01-16T04:19:09;2.50;;;0.90;;
16839;SDS011;8536;52.150;11.572;2023-01-16T04:21:42;2.73;;;1.00;;
16839;SDS011;8536;52.150;11.572;2023-01-16T04:24:09;2.33;;;0.90;;
16839;SDS011;8536;52.150;11.572;2023-01-16T04:26:36;2.40;;;1.10;;
16839;SDS011;8536;52.150;11.572;2023-01-16T04:29:03;1.50;;;1.07;;
16839;SDS011;8536;52.150;11.572;2023-01-16T04:35:11;2.33;;;0.87;;
16839;SDS011;8536;52.150;11.572;2023-01-16T04:37:38;2.53;;;1.00;;
16839;SDS011;8536;52.150;11.572;2023-01-16T04:42:51;1.63;;;0.80;;
16839;SDS011;8536;52.150;11.572;2023-01-16T04:45:18;4.03;;;1.07;;
16839;SDS011;8536;52.150;11.572;2023-01-16T04:47:45;2.17;;;1.23;;
16839;SDS011;8536;52.150;11.572;2023-01-16T04:50:13;3.40;;;1.00;;
16839;SDS011;8536;52.150;11.572;2023-01-16T04:52:40;0.70;;;0.50;;
16839;SDS011;8536;52.150;11.572;2023-01-16T04:55:07;1.97;;;0.70;;
16839;SDS011;8536;52.150;11.572;2023-01-16T04:57:35;1.90;;;0.80;;
16839;SDS011;8536;52.150;11.572;2023-01-16T05:00:02;2.83;;;1.10;;
16839;SDS011;8536;52.150;11.572;2023-01-16T05:02:30;1.00;;;0.77;;
16839;SDS011;8536;52.150;11.572;2023-01-16T05:04:56;3.20;;;0.67;;
16839;SDS011;8536;52.150;11.572;2023-01-16T05:07:23;1.07;;;0.57;;
16839;SDS011;8536;52.150;11.572;2023-01-16T05:09:51;1.80;;;0.60;;
16839;SDS011;8536;52.150;11.572;2023-01-16T05:12:17;1.43;;;0.60;;
16839;SDS011;8536;52.150;11.572;2023-01-16T05:14:44;0.97;;;0.70;;
16839;SDS011;8536;52.150;11.572;2023-01-16T05:17:10;1.83;;;0.80;;
16839;SDS011;8536;52.150;11.572;2023-01-16T05:19:37;1.43;;;0.80;;
16839;SDS011;8536;52.150;11.572;2023-01-16T05:22:03;3.83;;;0.87;;
16839;SDS011;8536;52.150;11.572;2023-01-16T05:24:29;1.17;;;0.90;;
16839;SDS011;8536;52.150;11.572;2023-01-16T05:26:56;2.03;;;0.80;;
16839;SDS011;8536;52.150;11.572;2023-01-16T05:29:22;1.40;;;0.90;;
16839;SDS011;8536;52.150;11.572;2023-01-16T05:31:51;1.40;;;0.70;;
16839;SDS011;8536;52.150;11.572;2023-01-16T05:34:17;1.83;;;0.80;;
16839;SDS011;8536;52.150;11.572;2023-01-16T05:36:44;2.43;;;1.17;;
16839;SDS011;8536;52.150;11.572;2023-01-16T05:39:10;2.67;;;1.03;;
16839;SDS011;8536;52.150;11.572;2023-01-16T05:41:36;3.33;;;1.23;;
16839;SDS011;8536;52.150;11.572;2023-01-16T05:44:03;1.53;;;0.93;;
16839;SDS011;8536;52.150;11.572;2023-01-16T05:46:29;1.20;;;0.83;;
16839;SDS011;8536;52.150;11.572;2023-01-16T05:48:56;2.60;;;0.87;;
16839;SDS011;8536;52.150;11.572;2023-01-16T05:51:22;1.83;;;1.00;;
16839;SDS011;8536;52.150;11.572;2023-01-16T05:53:52;4.17;;;0.80;;
16839;SDS011;8536;52.150;11.572;2023-01-16T05:56:19;1.40;;;0.77;;
16839;SDS011;8536;52.150;11.572;2023-01-16T05:58:47;2.53;;;1.10;;
16839;SDS011;8536;52.150;11.572;2023-01-16T06:01:13;1.87;;;0.80;;
16839;SDS011;8536;52.150;11.572;2023-01-16T06:03:40;1.43;;;0.70;;
16839;SDS011;8536;52.150;11.572;2023-01-16T06:06:06;1.03;;;0.60;;
16839;SDS011;8536;52.150;11.572;2023-01-16T06:08:33;2.20;;;1.00;;
16839;SDS011;8536;52.150;11.572;2023-01-16T06:10:59;1.63;;;0.97;;
16839;SDS011;8536;52.150;11.572;2023-01-16T06:13:26;0.97;;;0.50;;
16839;SDS011;8536;52.150;11.572;2023-01-16T06:15:52;1.43;;;0.70;;
16839;SDS011;8536;52.150;11.572;2023-01-16T06:18:19;2.50;;;0.87;;
16839;SDS011;8536;52.150;11.572;2023-01-16T06:20:45;2.00;;;0.77;;
16839;SDS011;8536;52.150;11.572;2023-01-16T06:23:12;1.87;;;0.90;;
16839;SDS011;8536;52.150;11.572;2023-01-16T06:25:38;1.47;;;0.83;;
16839;SDS011;8536;52.150;11.572;2023-01-16T06:28:05;2.10;;;0.83;;
16839;SDS011;8536;52.150;11.572;2023-01-16T06:30:31;3.90;;;0.90;;
16839;SDS011;8536;52.150;11.572;2023-01-16T06:32:57;1.37;;;0.80;;
16839;SDS011;8536;52.150;11.572;2023-01-16T06:35:24;2.13;;;0.87;;
16839;SDS011;8536;52.150;11.572;2023-01-16T06:37:50;1.77;;;1.07;;
16839;SDS011;8536;52.150;11.572;2023-01-16T06:40:17;2.87;;;1.23;;
16839;SDS011;8536;52.150;11.572;2023-01-16T06:42:45;2.00;;;1.07;;
16839;SDS011;8536;52.150;11.572;2023-01-16T06:45:11;3.33;;;1.30;;
16839;SDS011;8536;52.150;11.572;2023-01-16T06:47:38;2.70;;;0.87;;
16839;SDS011;8536;52.150;11.572;2023-01-16T06:50:04;1.97;;;1.00;;
16839;SDS011;8536;52.150;11.572;2023-01-16T06:52:31;3.63;;;0.90;;
16839;SDS011;8536;52.150;11.572;2023-01-16T06:54:57;0.90;;;0.83;;
16839;SDS011;8536;52.150;11.572;2023-01-16T06:57:24;1.73;;;1.30;;
16839;SDS011;8536;52.150;11.572;2023-01-16T06:59:50;2.60;;;1.10;;
16839;SDS011;8536;52.150;11.572;2023-01-16T07:02:17;3.03;;;1.00;;
16839;SDS011;8536;52.150;11.572;2023-01-16T07:04:43;2.23;;;1.20;;
16839;SDS011;8536;52.150;11.572;2023-01-16T07:07:10;2.13;;;1.20;;
16839;SDS011;8536;52.150;11.572;2023-01-16T07:09:37;3.50;;;1.10;;
16839;SDS011;8536;52.150;11.572;2023-01-16T07:12:03;2.97;;;1.10;;
16839;SDS011;8536;52.150;11.572;2023-01-16T07:14:30;3.23;;;1.30;;
16839;SDS011;8536;52.150;11.572;2023-01-16T07:17:15;4.53;;;1.70;;
16839;SDS011;8536;52.150;11.572;2023-01-16T07:20:00;2.90;;;1.40;;
16839;SDS011;8536;52.150;11.572;2023-01-16T07:22:45;2.20;;;1.20;;
16839;SDS011;8536;52.150;11.572;2023-01-16T07:25:14;2.00;;;1.10;;
16839;SDS011;8536;52.150;11.572;2023-01-16T07:27:43;1.43;;;1.13;;
16839;SDS011;8536;52.150;11.572;2023-01-16T07:30:11;4.53;;;1.30;;
16839;SDS011;8536;52.150;11.572;2023-01-16T07:32:38;1.43;;;1.10;;
16839;SDS011;8536;52.150;11.572;2023-01-16T07:35:05;4.90;;;1.50;;
16839;SDS011;8536;52.150;11.572;2023-01-16T07:37:33;3.40;;;1.37;;
16839;SDS011;8536;52.150;11.572;2023-01-16T07:39:59;2.87;;;1.40;;
16839;SDS011;8536;52.150;11.572;2023-01-16T07:42:26;1.93;;;1.20;;
16839;SDS011;8536;52.150;11.572;2023-01-16T07:44:52;2.17;;;1.10;;
16839;SDS011;8536;52.150;11.572;2023-01-16T07:47:19;2.13;;;1.00;;
16839;SDS011;8536;52.150;11.572;2023-01-16T07:49:45;1.70;;;1.10;;
16839;SDS011;8536;52.150;11.572;2023-01-16T07:52:12;1.93;;;0.90;;
16839;SDS011;8536;52.150;11.572;2023-01-16T07:54:38;2.40;;;1.20;;
16839;SDS011;8536;52.150;11.572;2023-01-16T07:57:07;2.43;;;1.27;;
16839;SDS011;8536;52.150;11.572;2023-01-16T07:59:33;3.33;;;1.10;;
16839;SDS011;8536;52.150;11.572;2023-01-16T08:02:00;5.30;;;1.27;;
16839;SDS011;8536;52.150;11.572;2023-01-16T08:04:27;2.07;;;1.17;;
16839;SDS011;8536;52.150;11.572;2023-01-16T08:06:57;2.53;;;1.20;;
16839;SDS011;8536;52.150;11.572;2023-01-16T08:09:23;3.67;;;1.27;;
16839;SDS011;8536;52.150;11.572;2023-01-16T08:11:50;2.67;;;1.47;;
16839;SDS011;8536;52.150;11.572;2023-01-16T08:14:16;1.13;;;0.80;;
16839;SDS011;8536;52.150;11.572;2023-01-16T08:16:43;1.83;;;1.33;;
16839;SDS011;8536;52.150;11.572;2023-01-16T08:19:09;2.70;;;1.27;;
16839;SDS011;8536;52.150;11.572;2023-01-16T08:21:36;3.93;;;1.03;;
16839;SDS011;8536;52.150;11.572;2023-01-16T08:24:02;3.40;;;1.37;;
16839;SDS011;8536;52.150;11.572;2023-01-16T08:26:29;1.83;;;1.07;;
16839;SDS011;8536;52.150;11.572;2023-01-16T08:28:55;3.07;;;1.00;;
16839;SDS011;8536;52.150;11.572;2023-01-16T08:31:22;2.57;;;1.10;;
16839;SDS011;8536;52.150;11.572;2023-01-16T08:33:48;2.87;;;1.27;;
16839;SDS011;8536;52.150;11.572;2023-01-16T08:36:15;5.13;;;1.30;;
16839;SDS011;8536;52.150;11.572;2023-01-16T08:38:43;4.10;;;1.60;;
16839;SDS011;8536;52.150;11.572;2023-01-16T08:41:09;1.97;;;1.27;;
16839;SDS011;8536;52.150;11.572;2023-01-16T08:43:56;3.50;;;1.13;;
16839;SDS011;8536;52.150;11.572;2023-01-16T08:46:41;2.40;;;0.93;;
16839;SDS011;8536;52.150;11.572;2023-01-16T08:49:26;1.57;;;1.20;;
16839;SDS011;8536;52.150;11.572;2023-01-16T08:52:12;2.87;;;1.10;;
16839;SDS011;8536;52.150;11.572;2023-01-16T08:54:38;3.03;;;1.33;;
16839;SDS011;8536;52.150;11.572;2023-01-16T08:57:05;2.60;;;1.50;;
16839;SDS011;8536;52.150;11.572;2023-01-16T08:59:31;2.30;;;1.20;;
16839;SDS011;8536;52.150;11.572;2023-01-16T09:02:03;3.67;;;1.70;;
16839;SDS011;8536;52.150;11.572;2023-01-16T09:04:30;3.80;;;1.50;;
16839;SDS011;8536;52.150;11.572;2023-01-16T09:06:57;5.77;;;1.80;;
16839;SDS011;8536;52.150;11.572;2023-01-16T09:09:23;4.87;;;1.20;;
16839;SDS011;8536;52.150;11.572;2023-01-16T09:11:54;1.93;;;1.10;;
16839;SDS011;8536;52.150;11.572;2023-01-16T09:14:39;3.93;;;1.30;;
16839;SDS011;8536;52.150;11.572;2023-01-16T09:17:06;2.23;;;1.10;;
16839;SDS011;8536;52.150;11.572;2023-01-16T09:19:34;1.93;;;1.10;;
16839;SDS011;8536;52.150;11.572;2023-01-16T09:22:01;2.67;;;1.20;;
16839;SDS011;8536;52.150;11.572;2023-01-16T09:24:32;3.33;;;1.13;;
16839;SDS011;8536;52.150;11.572;2023-01-16T09:27:00;6.57;;;1.47;;
16839;SDS011;8536;52.150;11.572;2023-01-16T09:29:28;4.00;;;1.30;;
16839;SDS011;8536;52.150;11.572;2023-01-16T09:31:55;3.00;;;0.93;;
16839;SDS011;8536;52.150;11.572;2023-01-16T09:34:21;4.57;;;1.90;;
16839;SDS011;8536;52.150;11.572;2023-01-16T09:36:48;5.27;;;2.23;;
16839;SDS011;8536;52.150;11.572;2023-01-16T09:39:14;2.70;;;1.20;;
16839;SDS011;8536;52.150;11.572;2023-01-16T09:44:57;2.00;;;1.17;;
16839;SDS011;8536;52.150;11.572;2023-01-16T09:47:27;2.60;;;1.50;;
16839;SDS011;8536;52.150;11.572;2023-01-16T09:49:55;3.70;;;1.17;;
16839;SDS011;8536;52.150;11.572;2023-01-16T09:52:26;1.70;;;1.17;;
16839;SDS011;8536;52.150;11.572;2023-01-16T09:55:18;3.47;;;1.60;;
16839;SDS011;8536;52.150;11.572;2023-01-16T09:58:07;3.40;;;1.73;;
16839;SDS011;8536;52.150;11.572;2023-01-16T10:00:59;2.07;;;1.00;;
16839;SDS011;8536;52.150;11.572;2023-01-16T10:03:26;2.57;;;1.03;;
16839;SDS011;8536;52.150;11.572;2023-01-16T10:11:21;5.83;;;1.27;;
16839;SDS011;8536;52.150;11.572;2023-01-16T10:17:03;4.00;;;1.50;;
16839;SDS011;8536;52.150;11.572;2023-01-16T10:27:28;3.10;;;1.30;;
16839;SDS011;8536;52.150;11.572;2023-01-16T10:30:14;3.53;;;1.23;;
16839;SDS011;8536;52.150;11.572;2023-01-16T10:32:49;2.33;;;1.13;;
16839;SDS011;8536;52.150;11.572;2023-01-16T10:35:24;4.77;;;1.10;;
16839;SDS011;8536;52.150;11.572;2023-01-16T10:37:53;2.17;;;1.10;;
16839;SDS011;8536;52.150;11.572;2023-01-16T10:40:22;1.67;;;0.73;;
16839;SDS011;8536;52.150;11.572;2023-01-16T10:43:02;4.37;;;1.30;;
16839;SDS011;8536;52.150;11.572;2023-01-16T10:45:54;2.00;;;0.90;;
16839;SDS011;8536;52.150;11.572;2023-01-16T10:48:40;3.03;;;1.13;;
16839;SDS011;8536;52.150;11.572;2023-01-16T10:51:25;2.40;;;1.17;;
16839;SDS011;8536;52.150;11.572;2023-01-16T10:53:51;1.70;;;0.83;;
16839;SDS011;8536;52.150;11.572;2023-01-16T10:56:18;2.13;;;0.90;;
16839;SDS011;8536;52.150;11.572;2023-01-16T10:58:44;2.80;;;1.00;;
16839;SDS011;8536;52.150;11.572;2023-01-16T11:01:13;2.33;;;1.00;;
16839;SDS011;8536;52.150;11.572;2023-01-16T11:03:42;4.40;;;1.17;;
16839;SDS011;8536;52.150;11.572;2023-01-16T11:08:41;2.97;;;0.90;;
16839;SDS011;8536;52.150;11.572;2023-01-16T11:11:11;3.10;;;1.27;;
16839;SDS011;8536;52.150;11.572;2023-01-16T11:13:58;1.63;;;1.20;;
16839;SDS011;8536;52.150;11.572;2023-01-16T11:16:44;3.03;;;1.00;;
16839;SDS011;8536;52.150;11.572;2023-01-16T11:19:30;1.53;;;0.97;;
16839;SDS011;8536;52.150;11.572;2023-01-16T11:22:09;5.23;;;1.20;;
16839;SDS011;8536;52.150;11.572;2023-01-16T11:24:47;2.97;;;1.20;;
16839;SDS011;8536;52.150;11.572;2023-01-16T11:27:16;2.57;;;1.00;;
16839;SDS011;8536;52.150;11.572;2023-01-16T11:29:45;4.10;;;1.10;;
16839;SDS011;8536;52.150;11.572;2023-01-16T11:32:13;3.07;;;1.10;;
16839;SDS011;8536;52.150;11.572;2023-01-16T11:34:43;2.03;;;1.03;;
16839;SDS011;8536;52.150;11.572;2023-01-16T11:37:12;2.57;;;1.10;;
16839;SDS011;8536;52.150;11.572;2023-01-16T11:39:39;1.80;;;0.80;;
16839;SDS011;8536;52.150;11.572;2023-01-16T11:42:08;2.47;;;0.93;;
16839;SDS011;8536;52.150;11.572;2023-01-16T11:44:58;2.93;;;1.20;;
16839;SDS011;8536;52.150;11.572;2023-01-16T11:47:44;2.53;;;0.97;;
16839;SDS011;8536;52.150;11.572;2023-01-16T11:50:21;2.67;;;0.90;;
16839;SDS011;8536;52.150;11.572;2023-01-16T11:52:53;1.17;;;0.87;;
16839;SDS011;8536;52.150;11.572;2023-01-16T11:55:19;2.37;;;0.97;;
16839;SDS011;8536;52.150;11.572;2023-01-16T11:57:48;2.27;;;0.97;;
16839;SDS011;8536;52.150;11.572;2023-01-16T12:03:12;2.40;;;0.90;;
16839;SDS011;8536;52.150;11.572;2023-01-16T12:11:21;2.13;;;1.00;;
16839;SDS011;8536;52.150;11.572;2023-01-16T12:17:01;4.07;;;1.13;;
16839;SDS011;8536;52.150;11.572;2023-01-16T12:22:45;2.50;;;1.33;;
16839;SDS011;8536;52.150;11.572;2023-01-16T12:27:54;3.23;;;0.83;;
16839;SDS011;8536;52.150;11.572;2023-01-16T12:36:39;2.23;;;0.97;;
16839;SDS011;8536;52.150;11.572;2023-01-16T12:42:56;4.07;;;1.00;;
16839;SDS011;8536;52.150;11.572;2023-01-16T12:45:57;3.20;;;0.67;;
16839;SDS011;8536;52.150;11.572;2023-01-16T12:57:33;2.60;;;1.13;;
16839;SDS011;8536;52.150;11.572;2023-01-16T13:00:17;3.90;;;1.07;;
16839;SDS011;8536;52.150;11.572;2023-01-16T13:02:55;3.47;;;1.10;;
16839;SDS011;8536;52.150;11.572;2023-01-16T13:05:25;4.37;;;1.00;;
16839;SDS011;8536;52.150;11.572;2023-01-16T13:07:57;1.10;;;1.00;;
16839;SDS011;8536;52.150;11.572;2023-01-16T13:10:28;2.23;;;1.10;;
16839;SDS011;8536;52.150;11.572;2023-01-16T13:13:18;1.70;;;1.03;;
16839;SDS011;8536;52.150;11.572;2023-01-16T13:15:52;3.53;;;0.93;;
16839;SDS011;8536;52.150;11.572;2023-01-16T13:18:24;3.43;;;1.60;;
16839;SDS011;8536;52.150;11.572;2023-01-16T13:20:55;6.43;;;2.93;;
16839;SDS011;8536;52.150;11.572;2023-01-16T13:23:24;3.30;;;1.57;;
16839;SDS011;8536;52.150;11.572;2023-01-16T13:25:54;2.27;;;1.10;;
16839;SDS011;8536;52.150;11.572;2023-01-16T13:28:33;4.57;;;1.60;;
16839;SDS011;8536;52.150;11.572;2023-01-16T13:31:33;3.77;;;1.03;;
16839;SDS011;8536;52.150;11.572;2023-01-16T13:42:52;3.33;;;1.67;;
16839;SDS011;8536;52.150;11.572;2023-01-16T13:45:44;1.53;;;0.70;;
16839;SDS011;8536;52.150;11.572;2023-01-16T13:48:16;1.57;;;0.80;;
16839;SDS011;8536;52.150;11.572;2023-01-16T13:50:46;1.77;;;0.97;;
16839;SDS011;8536;52.150;11.572;2023-01-16T13:53:18;1.50;;;0.90;;
16839;SDS011;8536;52.150;11.572;2023-01-16T13:55:48;2.23;;;0.80;;
16839;SDS011;8536;52.150;11.572;2023-01-16T13:58:17;2.17;;;0.93;;
16839;SDS011;8536;52.150;11.572;2023-01-16T14:00:45;1.77;;;0.93;;
16839;SDS011;8536;52.150;11.572;2023-01-16T14:03:23;1.27;;;0.90;;
16839;SDS011;8536;52.150;11.572;2023-01-16T14:06:19;1.80;;;0.90;;
16839;SDS011;8536;52.150;11.572;2023-01-16T14:08:51;1.10;;;0.60;;
16839;SDS011;8536;52.150;11.572;2023-01-16T14:17:06;1.87;;;1.00;;
16839;SDS011;8536;52.150;11.572;2023-01-16T14:19:37;2.03;;;0.70;;
16839;SDS011;8536;52.150;11.572;2023-01-16T14:22:12;1.90;;;0.90;;
16839;SDS011;8536;52.150;11.572;2023-01-16T14:24:48;1.40;;;0.90;;
16839;SDS011;8536;52.150;11.572;2023-01-16T14:27:19;1.20;;;0.90;;
16839;SDS011;8536;52.150;11.572;2023-01-16T14:29:49;2.00;;;0.90;;
16839;SDS011;8536;52.150;11.572;2023-01-16T14:32:19;3.03;;;1.20;;
16839;SDS011;8536;52.150;11.572;2023-01-16T14:34:51;3.27;;;1.33;;
16839;SDS011;8536;52.150;11.572;2023-01-16T14:39:58;5.70;;;1.00;;
16839;SDS011;8536;52.150;11.572;2023-01-16T14:42:29;1.20;;;0.80;;
16839;SDS011;8536;52.150;11.572;2023-01-16T14:45:38;2.40;;;1.10;;
16839;SDS011;8536;52.150;11.572;2023-01-16T14:54:09;2.00;;;1.03;;
16839;SDS011;8536;52.150;11.572;2023-01-16T14:57:03;1.97;;;1.00;;
16839;SDS011;8536;52.150;11.572;2023-01-16T14:59:43;1.37;;;0.87;;
16839;SDS011;8536;52.150;11.572;2023-01-16T15:02:23;1.30;;;0.83;;
16839;SDS011;8536;52.150;11.572;2023-01-16T15:07:44;1.87;;;1.00;;
16839;SDS011;8536;52.150;11.572;2023-01-16T15:10:30;1.40;;;0.80;;
16839;SDS011;8536;52.150;11.572;2023-01-16T15:13:13;1.67;;;1.13;;
16839;SDS011;8536;52.150;11.572;2023-01-16T15:15:45;5.30;;;1.00;;
16839;SDS011;8536;52.150;11.572;2023-01-16T15:18:16;3.00;;;1.07;;
16839;SDS011;8536;52.150;11.572;2023-01-16T15:21:15;1.47;;;0.90;;
16839;SDS011;8536;52.150;11.572;2023-01-16T15:24:02;3.10;;;1.17;;
16839;SDS011;8536;52.150;11.572;2023-01-16T15:29:01;1.67;;;1.00;;
16839;SDS011;8536;52.150;11.572;2023-01-16T15:31:39;2.60;;;0.90;;
16839;SDS011;8536;52.150;11.572;2023-01-16T15:34:17;1.93;;;0.80;;
16839;SDS011;8536;52.150;11.572;2023-01-16T15:36:48;2.97;;;1.13;;
16839;SDS011;8536;52.150;11.572;2023-01-16T15:44:45;1.60;;;0.80;;
16839;SDS011;8536;52.150;11.572;2023-01-16T15:47:46;4.27;;;1.10;;
16839;SDS011;8536;52.150;11.572;2023-01-16T15:50:43;1.63;;;1.00;;
16839;SDS011;8536;52.150;11.572;2023-01-16T15:53:20;0.90;;;0.63;;
16839;SDS011;8536;52.150;11.572;2023-01-16T15:55:49;1.20;;;0.90;;
16839;SDS011;8536;52.150;11.572;2023-01-16T15:58:21;2.60;;;1.00;;
16839;SDS011;8536;52.150;11.572;2023-01-16T16:01:07;4.03;;;0.90;;
16839;SDS011;8536;52.150;11.572;2023-01-16T16:03:46;2.17;;;1.10;;
16839;SDS011;8536;52.150;11.572;2023-01-16T16:06:14;1.67;;;1.17;;
16839;SDS011;8536;52.150;11.572;2023-01-16T16:08:44;4.50;;;1.00;;
16839;SDS011;8536;52.150;11.572;2023-01-16T16:11:19;3.30;;;1.07;;
16839;SDS011;8536;52.150;11.572;2023-01-16T16:14:06;1.20;;;0.93;;
16839;SDS011;8536;52.150;11.572;2023-01-16T16:16:59;2.73;;;0.90;;
16839;SDS011;8536;52.150;11.572;2023-01-16T16:19:45;3.13;;;1.50;;
16839;SDS011;8536;52.150;11.572;2023-01-16T16:22:13;2.00;;;1.03;;
16839;SDS011;8536;52.150;11.572;2023-01-16T16:25:08;1.50;;;0.90;;
16839;SDS011;8536;52.150;11.572;2023-01-16T16:27:43;1.63;;;0.80;;
16839;SDS011;8536;52.150;11.572;2023-01-16T16:30:15;1.60;;;0.90;;
16839;SDS011;8536;52.150;11.572;2023-01-16T16:32:45;3.33;;;1.10;;
16839;SDS011;8536;52.150;11.572;2023-01-16T16:35:20;2.83;;;1.20;;
16839;SDS011;8536;52.150;11.572;2023-01-16T16:37:50;1.50;;;0.90;;
16839;SDS011;8536;52.150;11.572;2023-01-16T16:40:16;2.20;;;1.33;;
16839;SDS011;8536;52.150;11.572;2023-01-16T16:42:50;3.13;;;1.30;;
16839;SDS011;8536;52.150;11.572;2023-01-16T16:45:19;2.63;;;1.00;;
16839;SDS011;8536;52.150;11.572;2023-01-16T16:51:08;2.10;;;1.20;;
16839;SDS011;8536;52.150;11.572;2023-01-16T16:53:37;2.50;;;1.00;;
16839;SDS011;8536;52.150;11.572;2023-01-16T16:56:10;2.03;;;1.00;;
16839;SDS011;8536;52.150;11.572;2023-01-16T16:58:44;2.13;;;1.17;;
16839;SDS011;8536;52.150;11.572;2023-01-16T17:01:16;1.33;;;0.93;;
16839;SDS011;8536;52.150;11.572;2023-01-16T17:03:45;1.80;;;1.00;;
16839;SDS011;8536;52.150;11.572;2023-01-16T17:06:25;3.20;;;1.10;;
16839;SDS011;8536;52.150;11.572;2023-01-16T17:08:54;1.53;;;0.80;;
16839;SDS011;8536;52.150;11.572;2023-01-16T17:11:20;3.03;;;1.50;;
16839;SDS011;8536;52.150;11.572;2023-01-16T17:13:47;1.80;;;1.03;;
16839;SDS011;8536;52.150;11.572;2023-01-16T17:16:17;2.10;;;0.90;;
16839;SDS011;8536;52.150;11.572;2023-01-16T17:18:48;3.13;;;1.10;;
16839;SDS011;8536;52.150;11.572;2023-01-16T17:21:19;2.47;;;1.20;;
16839;SDS011;8536;52.150;11.572;2023-01-16T17:23:45;1.67;;;0.97;;
16839;SDS011;8536;52.150;11.572;2023-01-16T17:26:13;2.87;;;1.30;;
16839;SDS011;8536;52.150;11.572;2023-01-16T17:28:41;2.07;;;1.50;;
16839;SDS011;8536;52.150;11.572;2023-01-16T17:31:15;2.20;;;1.00;;
16839;SDS011;8536;52.150;11.572;2023-01-16T17:33:46;3.70;;;1.60;;
16839;SDS011;8536;52.150;11.572;2023-01-16T17:36:20;2.20;;;1.30;;
16839;SDS011;8536;52.150;11.572;2023-01-16T17:38:48;3.70;;;1.40;;
16839;SDS011;8536;52.150;11.572;2023-01-16T17:41:16;4.97;;;1.50;;